createdAt,value
2019-02-07T00:01:36.120Z,3.03
2019-02-07T00:04:09.852Z,1.07
2019-02-07T00:06:43.460Z,2.73
2019-02-07T00:09:17.348Z,1.77
2019-02-07T00:11:51.291Z,2.90
2019-02-07T00:14:25.598Z,2.53
2019-02-07T00:16:59.327Z,2.97
2019-02-07T00:19:33.106Z,2.53
2019-02-07T00:22:08.780Z,3.30
2019-02-07T00:24:43.189Z,2.20
2019-02-07T00:27:18.939Z,2.77
2019-02-07T00:29:53.995Z,4.50
2019-02-07T00:32:28.671Z,3.12
2019-02-07T00:35:02.339Z,6.13
2019-02-07T00:37:37.382Z,5.03
2019-02-07T00:40:13.678Z,3.63
2019-02-07T00:42:47.440Z,6.50
2019-02-07T00:45:21.556Z,6.10
2019-02-07T00:47:56.393Z,4.70
2019-02-07T00:50:31.181Z,4.47
2019-02-07T00:53:04.730Z,6.87
2019-02-07T00:55:38.374Z,3.83
2019-02-07T00:58:12.911Z,7.77
2019-02-07T01:00:46.661Z,6.20
2019-02-07T01:03:20.516Z,6.77
2019-02-07T01:05:54.196Z,7.33
2019-02-07T01:08:27.850Z,6.83
2019-02-07T01:11:01.725Z,7.83
2019-02-07T01:13:41.994Z,7.73
2019-02-07T01:16:15.576Z,5.67
2019-02-07T01:18:49.135Z,7.83
2019-02-07T01:21:22.707Z,4.33
2019-02-07T01:23:57.335Z,6.57
2019-02-07T01:26:30.941Z,6.20
2019-02-07T01:29:04.628Z,8.67
2019-02-07T01:31:38.462Z,4.60
2019-02-07T01:34:13.755Z,6.93
2019-02-07T01:36:48.314Z,5.83
2019-02-07T01:39:22.008Z,5.63
2019-02-07T01:41:57.232Z,9.08
2019-02-07T01:44:31.712Z,12.33
2019-02-07T01:47:05.542Z,2.70
2019-02-07T01:49:39.239Z,3.13
2019-02-07T01:52:14.712Z,3.58
2019-02-07T01:54:48.174Z,3.17
2019-02-07T01:57:21.752Z,6.03
2019-02-07T01:59:55.293Z,5.63
2019-02-07T02:02:28.929Z,7.10
2019-02-07T02:05:03.928Z,4.60
2019-02-07T02:07:37.533Z,4.37
2019-02-07T02:10:19.719Z,4.07
2019-02-07T02:12:53.797Z,4.43
2019-02-07T02:15:27.706Z,2.77
2019-02-07T02:18:01.199Z,3.73
2019-02-07T02:20:36.004Z,4.23
2019-02-07T02:23:09.634Z,3.60
2019-02-07T02:25:44.837Z,4.78
2019-02-07T02:28:18.498Z,4.30
2019-02-07T02:30:53.675Z,4.63
2019-02-07T02:33:27.249Z,3.70
2019-02-07T02:36:02.548Z,4.27
2019-02-07T02:38:37.307Z,3.72
2019-02-07T02:41:11.337Z,4.97
2019-02-07T02:43:44.886Z,5.27
2019-02-07T02:46:18.453Z,7.10
2019-02-07T02:48:51.987Z,5.83
2019-02-07T02:51:25.399Z,5.10
2019-02-07T02:53:58.971Z,5.40
2019-02-07T02:56:32.426Z,5.97
2019-02-07T02:59:06.735Z,5.45
2019-02-07T03:01:40.295Z,4.87
2019-02-07T03:04:15.517Z,3.37
2019-02-07T03:06:49.165Z,4.30
2019-02-07T03:09:22.919Z,4.20
2019-02-07T03:11:56.609Z,4.40
2019-02-07T03:14:30.336Z,11.85
2019-02-07T03:17:04.132Z,7.03
2019-02-07T03:19:38.060Z,10.00
2019-02-07T03:22:12.092Z,6.75
2019-02-07T03:24:45.943Z,4.70
2019-02-07T03:27:19.535Z,3.77
2019-02-07T03:29:53.206Z,7.60
2019-02-07T03:32:27.880Z,5.90
2019-02-07T03:35:03.675Z,7.13
2019-02-07T03:37:39.872Z,5.80
2019-02-07T03:40:15.223Z,8.10
2019-02-07T03:42:49.241Z,5.90
2019-02-07T03:45:23.436Z,4.42
2019-02-07T03:47:57.469Z,4.63
2019-02-07T03:50:31.639Z,4.30
2019-02-07T03:53:07.412Z,3.73
2019-02-07T03:55:44.997Z,3.85
2019-02-07T03:58:20.500Z,6.03
2019-02-07T04:00:56.488Z,19.17
2019-02-07T04:03:32.416Z,5.47
2019-02-07T04:06:09.387Z,4.37
2019-02-07T04:08:45.151Z,6.83
2019-02-07T04:11:21.102Z,4.37
2019-02-07T04:13:56.989Z,7.37
2019-02-07T04:16:33.044Z,5.17
2019-02-07T04:19:08.925Z,5.17
2019-02-07T04:21:44.484Z,5.28
2019-02-07T04:24:20.582Z,6.90
2019-02-07T04:26:56.315Z,5.30
2019-02-07T04:29:32.153Z,3.23
2019-02-07T04:32:08.004Z,5.80
2019-02-07T04:34:45.674Z,5.47
2019-02-07T04:37:21.442Z,8.30
2019-02-07T04:39:57.346Z,5.73
2019-02-07T04:42:35.751Z,7.33
2019-02-07T04:45:12.284Z,4.60
2019-02-07T04:47:48.880Z,5.33
2019-02-07T04:50:30.429Z,8.00
2019-02-07T04:53:04.739Z,4.47
2019-02-07T04:55:38.994Z,4.28
2019-02-07T04:58:13.031Z,6.03
2019-02-07T05:00:47.429Z,4.80
2019-02-07T05:03:21.727Z,4.83
2019-02-07T05:05:56.124Z,5.03
2019-02-07T05:08:36.237Z,7.23
2019-02-07T05:11:11.460Z,4.37
2019-02-07T05:13:46.945Z,5.40
2019-02-07T05:16:20.839Z,5.80
2019-02-07T05:18:54.961Z,4.33
2019-02-07T05:21:28.927Z,4.73
2019-02-07T05:24:02.899Z,4.63
2019-02-07T05:26:36.725Z,7.27
2019-02-07T05:29:10.630Z,5.33
2019-02-07T05:31:44.269Z,4.77
2019-02-07T05:34:18.513Z,4.67
2019-02-07T05:36:52.765Z,6.10
2019-02-07T05:39:26.843Z,5.07
2019-02-07T05:42:01.306Z,6.08
2019-02-07T05:44:35.713Z,5.27
2019-02-07T05:47:10.339Z,5.37
2019-02-07T05:49:46.951Z,6.10
2019-02-07T05:52:21.462Z,4.43
2019-02-07T05:54:57.448Z,7.80
2019-02-07T05:57:32.187Z,6.67
2019-02-07T06:00:09.931Z,4.90
2019-02-07T06:02:44.460Z,5.07
2019-02-07T06:05:19.090Z,5.22
2019-02-07T06:07:54.641Z,5.70
2019-02-07T06:10:29.502Z,5.97
2019-02-07T06:13:04.310Z,11.20
2019-02-07T06:15:39.611Z,7.25
2019-02-07T06:18:16.103Z,4.45
2019-02-07T06:20:51.537Z,6.65
2019-02-07T06:23:26.643Z,6.53
2019-02-07T06:26:01.747Z,6.73
2019-02-07T06:28:36.844Z,6.30
2019-02-07T06:31:11.695Z,5.05
2019-02-07T06:33:46.361Z,6.50
2019-02-07T06:36:21.537Z,6.40
2019-02-07T06:38:56.182Z,5.80
2019-02-07T06:41:34.277Z,5.67
2019-02-07T06:44:08.679Z,5.03
2019-02-07T06:46:43.246Z,6.30
2019-02-07T06:49:17.757Z,6.23
2019-02-07T06:51:54.587Z,4.57
2019-02-07T06:54:29.547Z,5.63
2019-02-07T06:57:04.719Z,4.62
2019-02-07T06:59:41.029Z,7.12
2019-02-07T07:02:15.378Z,4.53
2019-02-07T07:04:51.299Z,5.23
2019-02-07T07:07:27.406Z,6.67
2019-02-07T07:10:04.421Z,5.25
2019-02-07T07:12:38.636Z,4.05
2019-02-07T07:15:16.456Z,5.43
2019-02-07T07:18:10.639Z,4.80
2019-02-07T07:20:45.380Z,7.10
2019-02-07T07:23:19.699Z,4.80
2019-02-07T07:25:55.493Z,5.63
2019-02-07T07:28:30.746Z,4.17
2019-02-07T07:31:05.237Z,5.27
2019-02-07T07:33:39.399Z,5.43
2019-02-07T07:36:16.189Z,5.80
2019-02-07T07:38:50.663Z,4.93
2019-02-07T07:41:27.044Z,6.28
2019-02-07T07:44:02.221Z,5.53
2019-02-07T07:46:40.939Z,5.83
2019-02-07T07:49:16.477Z,5.53
2019-02-07T07:51:59.225Z,2.80
2019-02-07T07:54:36.926Z,3.70
2019-02-07T07:57:12.654Z,4.87
2019-02-07T07:59:48.291Z,5.60
2019-02-07T08:02:25.870Z,4.60
2019-02-07T08:05:00.325Z,5.57
2019-02-07T08:07:34.973Z,3.50
2019-02-07T08:10:12.306Z,5.93
2019-02-07T08:12:47.167Z,3.03
2019-02-07T08:15:21.551Z,4.53
2019-02-07T08:17:56.017Z,3.83
2019-02-07T08:20:30.644Z,4.03
2019-02-07T08:23:05.032Z,3.83
2019-02-07T08:26:00.846Z,3.60
2019-02-07T08:28:37.276Z,4.27
2019-02-07T08:31:12.926Z,4.33
2019-02-07T08:33:50.059Z,4.80
2019-02-07T08:36:25.173Z,4.47
2019-02-07T08:39:02.953Z,5.33
2019-02-07T08:41:40.313Z,4.75
2019-02-07T08:44:15.626Z,5.38
2019-02-07T08:46:50.635Z,5.78
2019-02-07T08:49:27.486Z,4.30
2019-02-07T08:52:03.523Z,4.73
2019-02-07T08:54:38.871Z,5.53
2019-02-07T08:57:14.238Z,5.67
2019-02-07T08:59:49.822Z,5.67
2019-02-07T09:02:25.457Z,6.37
2019-02-07T09:05:04.031Z,5.27
2019-02-07T09:07:39.293Z,5.67
2019-02-07T09:10:19.343Z,5.33
2019-02-07T09:12:55.302Z,7.33
2019-02-07T09:15:31.155Z,6.92
2019-02-07T09:18:10.281Z,6.80
2019-02-07T09:20:44.663Z,5.17
2019-02-07T09:23:20.121Z,6.87
2019-02-07T09:25:56.943Z,6.97
2019-02-07T09:28:35.648Z,6.80
2019-02-07T09:31:11.708Z,7.80
2019-02-07T09:33:49.899Z,7.73
2019-02-07T09:36:28.241Z,7.80
2019-02-07T09:39:05.972Z,6.47
2019-02-07T09:41:41.381Z,9.00
2019-02-07T09:44:17.416Z,10.55
2019-02-07T09:46:53.212Z,8.73
2019-02-07T09:49:32.938Z,8.90
2019-02-07T09:52:11.537Z,8.07
2019-02-07T09:54:47.125Z,9.13
2019-02-07T09:57:22.410Z,7.08
2019-02-07T10:00:00.396Z,9.38
2019-02-07T10:02:37.038Z,9.33
2019-02-07T10:05:16.367Z,9.50
2019-02-07T10:07:56.096Z,8.83
2019-02-07T10:10:31.915Z,9.40
2019-02-07T10:13:08.119Z,8.60
2019-02-07T10:15:46.503Z,10.73
2019-02-07T10:18:32.819Z,10.63
2019-02-07T10:21:03.648Z,9.67
2019-02-07T10:23:41.992Z,8.58
2019-02-07T10:26:17.221Z,9.53
2019-02-07T10:28:53.020Z,10.53
2019-02-07T10:31:33.414Z,10.40
2019-02-07T10:34:09.190Z,7.73
2019-02-07T10:36:44.318Z,9.63
2019-02-07T10:39:20.132Z,10.23
2019-02-07T10:41:55.994Z,10.23
2019-02-07T10:44:34.498Z,9.78
2019-02-07T10:47:12.951Z,10.70
2019-02-07T10:49:58.673Z,8.87
2019-02-07T10:52:24.588Z,9.03
2019-02-07T10:55:00.830Z,10.40
2019-02-07T10:57:37.376Z,10.55
2019-02-07T11:00:26.488Z,10.20
2019-02-07T11:03:11.770Z,12.30
2019-02-07T11:05:49.452Z,11.23
2019-02-07T11:08:28.425Z,11.00
2019-02-07T11:11:03.743Z,12.13
2019-02-07T11:13:38.412Z,12.37
2019-02-07T11:16:13.026Z,12.23
2019-02-07T11:18:55.231Z,12.53
2019-02-07T11:21:25.290Z,6.90
2019-02-07T11:24:03.823Z,12.20
2019-02-07T11:26:42.146Z,12.60
2019-02-07T11:29:20.077Z,16.17
2019-02-07T11:31:55.165Z,13.53
2019-02-07T11:34:30.462Z,14.35
2019-02-07T11:37:08.120Z,16.70
2019-02-07T11:39:48.902Z,13.50
2019-02-07T11:42:23.918Z,20.77
2019-02-07T11:44:59.281Z,22.15
2019-02-07T11:47:34.909Z,23.93
2019-02-07T11:50:12.820Z,27.63
2019-02-07T11:52:54.304Z,28.07
2019-02-07T11:55:25.462Z,30.43
2019-02-07T11:58:01.504Z,30.72
2019-02-07T12:00:36.613Z,25.45
2019-02-07T12:03:12.436Z,32.00
2019-02-07T12:06:08.652Z,32.20
2019-02-07T12:08:42.938Z,23.25
2019-02-07T12:11:19.604Z,27.80
2019-02-07T12:13:54.549Z,24.80
2019-02-07T12:16:32.819Z,28.53
2019-02-07T12:19:17.772Z,22.23
2019-02-07T12:21:45.760Z,26.37
2019-02-07T12:24:26.465Z,20.93
2019-02-07T12:27:01.779Z,23.60
2019-02-07T12:29:44.332Z,26.07
2019-02-07T12:32:24.132Z,18.93
2019-02-07T12:35:02.913Z,22.67
2019-02-07T12:37:39.354Z,25.05
2019-02-07T12:40:17.917Z,20.07
2019-02-07T12:42:56.471Z,26.40
2019-02-07T12:45:35.132Z,21.73
2019-02-07T12:48:10.694Z,28.23
2019-02-07T12:50:47.397Z,27.40
2019-02-07T12:53:24.573Z,27.77
2019-02-07T12:56:01.319Z,31.67
2019-02-07T12:58:36.072Z,26.90
2019-02-07T13:01:15.144Z,34.97
2019-02-07T13:03:53.145Z,38.93
2019-02-07T13:06:29.132Z,31.90
2019-02-07T13:09:10.512Z,37.40
2019-02-07T13:11:43.718Z,33.13
2019-02-07T13:14:18.895Z,37.13
2019-02-07T13:16:58.152Z,33.93
2019-02-07T13:19:39.940Z,33.93
2019-02-07T13:22:10.182Z,32.27
2019-02-07T13:24:45.110Z,30.73
2019-02-07T13:27:25.211Z,30.05
2019-02-07T13:30:01.243Z,28.12
2019-02-07T13:32:43.024Z,28.62
2019-02-07T13:35:18.875Z,24.70
2019-02-07T13:37:53.796Z,25.93
2019-02-07T13:40:37.732Z,25.20
2019-02-07T13:43:13.890Z,25.86
2019-02-07T13:45:48.963Z,27.27
2019-02-07T13:48:24.498Z,22.87
2019-02-07T13:51:08.209Z,23.17
2019-02-07T13:53:43.319Z,18.83
2019-02-07T13:56:24.330Z,22.00
2019-02-07T13:59:00.797Z,22.60
2019-02-07T14:01:40.845Z,23.13
2019-02-07T14:04:15.832Z,20.60
2019-02-07T14:06:55.228Z,24.07
2019-02-07T14:09:27.956Z,19.00
2019-02-07T14:12:07.332Z,22.82
2019-02-07T14:14:43.730Z,16.27
2019-02-07T14:17:21.500Z,19.27
2019-02-07T14:20:03.871Z,17.37
2019-02-07T14:22:35.616Z,17.00
2019-02-07T14:25:15.877Z,14.73
2019-02-07T14:27:51.256Z,12.17
2019-02-07T14:30:29.366Z,16.93
2019-02-07T14:33:04.069Z,17.40
2019-02-07T14:35:52.418Z,14.93
2019-02-07T14:38:30.550Z,16.42
2019-02-07T14:41:06.293Z,17.37
2019-02-07T14:43:41.008Z,15.30
2019-02-07T14:46:27.263Z,14.93
2019-02-07T14:48:57.926Z,14.03
2019-02-07T14:51:35.810Z,13.50
2019-02-07T14:54:14.095Z,15.27
2019-02-07T14:56:51.233Z,13.13
2019-02-07T14:59:27.447Z,13.67
2019-02-07T15:02:12.687Z,9.33
2019-02-07T15:04:50.691Z,10.83
2019-02-07T15:07:25.372Z,12.83
2019-02-07T15:10:07.894Z,13.43
2019-02-07T15:12:45.320Z,12.60
2019-02-07T15:15:30.345Z,12.47
2019-02-07T15:18:05.731Z,9.73
2019-02-07T15:20:50.409Z,10.73
2019-02-07T15:23:25.153Z,13.68
2019-02-07T15:26:09.463Z,11.53
2019-02-07T15:28:44.183Z,14.50
2019-02-07T15:31:23.182Z,11.27
2019-02-07T15:33:58.778Z,10.00
2019-02-07T15:36:38.659Z,9.53
2019-02-07T15:39:17.954Z,8.10
2019-02-07T15:41:57.867Z,10.03
2019-02-07T15:44:36.417Z,10.13
2019-02-07T15:47:14.971Z,7.97
2019-02-07T15:49:52.632Z,9.60
2019-02-07T15:52:36.067Z,6.93
2019-02-07T15:55:15.508Z,8.33
2019-02-07T15:57:56.235Z,7.53
2019-02-07T16:00:35.438Z,6.80
2019-02-07T16:03:08.602Z,4.93
2019-02-07T16:05:45.545Z,5.72
2019-02-07T16:08:18.503Z,8.60
2019-02-07T16:10:56.674Z,6.42
2019-02-07T16:13:35.385Z,6.33
2019-02-07T16:16:12.670Z,6.17
2019-02-07T16:18:50.679Z,6.23
2019-02-07T16:21:22.195Z,6.70
2019-02-07T16:24:01.646Z,7.63
2019-02-07T16:26:40.620Z,6.63
2019-02-07T16:29:18.701Z,6.40
2019-02-07T16:32:03.811Z,6.40
2019-02-07T16:34:39.389Z,5.55
2019-02-07T16:37:42.460Z,3.20
2019-02-07T16:40:14.178Z,6.17
2019-02-07T16:42:31.310Z,5.90
2019-02-07T16:45:17.680Z,5.80
2019-02-07T16:47:47.149Z,6.57
2019-02-07T16:50:37.630Z,4.73
2019-02-07T16:53:13.845Z,4.93
2019-02-07T16:55:53.872Z,5.15
2019-02-07T16:58:32.124Z,5.13
2019-02-07T17:01:11.158Z,4.83
2019-02-07T17:03:46.358Z,5.82
2019-02-07T17:06:27.129Z,4.57
2019-02-07T17:09:05.213Z,6.00
2019-02-07T17:11:42.386Z,5.90
2019-02-07T17:14:17.257Z,5.70
2019-02-07T17:16:55.700Z,4.37
2019-02-07T17:19:41.847Z,3.50
2019-02-07T17:22:17.773Z,6.27
2019-02-07T17:24:57.336Z,4.65
2019-02-07T17:27:34.679Z,5.53
2019-02-07T17:30:07.303Z,5.83
2019-02-07T17:32:44.839Z,4.13
2019-02-07T17:35:25.592Z,4.13
2019-02-07T17:38:04.015Z,5.10
2019-02-07T17:40:44.123Z,4.97
2019-02-07T17:43:22.043Z,4.78
2019-02-07T17:46:00.539Z,5.77
2019-02-07T17:48:38.598Z,5.27
2019-02-07T17:51:22.921Z,2.67
2019-02-07T17:53:51.628Z,3.50
2019-02-07T17:56:32.287Z,4.57
2019-02-07T17:59:06.297Z,4.50
2019-02-07T18:01:44.321Z,5.30
2019-02-07T18:04:16.737Z,3.80
2019-02-07T18:06:54.449Z,5.28
2019-02-07T18:09:29.262Z,5.00
2019-02-07T18:12:04.337Z,5.62
2019-02-07T18:14:41.804Z,5.77
2019-02-07T18:17:24.900Z,4.97
2019-02-07T18:20:05.438Z,5.55
2019-02-07T18:22:41.062Z,5.43
2019-02-07T18:25:22.970Z,5.20
2019-02-07T18:27:55.350Z,5.30
2019-02-07T18:30:33.597Z,4.42
2019-02-07T18:33:06.681Z,4.70
2019-02-07T18:35:47.057Z,6.77
2019-02-07T18:38:25.411Z,3.83
2019-02-07T18:41:11.580Z,4.58
2019-02-07T18:43:49.938Z,4.23
2019-02-07T18:46:24.062Z,4.84
2019-02-07T18:48:58.714Z,4.67
2019-02-07T18:51:44.941Z,3.27
2019-02-07T18:54:10.036Z,5.77
2019-02-07T18:56:44.549Z,4.83
2019-02-07T18:59:21.763Z,4.87
2019-02-07T19:01:59.987Z,4.53
2019-02-07T19:04:34.793Z,5.47
2019-02-07T19:07:12.499Z,4.83
2019-02-07T19:09:47.268Z,2.97
2019-02-07T19:12:21.539Z,4.20
2019-02-07T19:15:12.862Z,3.45
2019-02-07T19:17:31.505Z,4.70
2019-02-07T19:20:07.312Z,5.47
2019-02-07T19:22:41.803Z,3.80
2019-02-07T19:25:16.839Z,4.67
2019-02-07T19:27:52.342Z,4.04
2019-02-07T19:30:34.701Z,5.00
2019-02-07T19:33:14.116Z,2.97
2019-02-07T19:35:45.106Z,5.10
2019-02-07T19:38:19.778Z,3.70
2019-02-07T19:40:54.341Z,5.37
2019-02-07T19:43:30.656Z,4.47
2019-02-07T19:46:05.404Z,4.67
2019-02-07T19:48:40.146Z,3.67
2019-02-07T19:51:16.974Z,4.40
2019-02-07T19:53:51.805Z,4.23
2019-02-07T19:56:28.616Z,3.67
2019-02-07T19:59:03.583Z,3.50
2019-02-07T20:01:40.113Z,3.67
2019-02-07T20:04:17.510Z,4.40
2019-02-07T20:06:52.480Z,3.60
2019-02-07T20:09:27.452Z,4.20
2019-02-07T20:12:02.596Z,4.53
2019-02-07T20:14:37.930Z,3.70
2019-02-07T20:17:14.219Z,4.28
2019-02-07T20:19:48.849Z,2.93
2019-02-07T20:22:25.767Z,3.80
2019-02-07T20:25:02.746Z,4.57
2019-02-07T20:27:39.062Z,4.33
2019-02-07T20:30:46.349Z,5.07
2019-02-07T20:33:21.228Z,4.20
2019-02-07T20:35:56.268Z,4.97
2019-02-07T20:38:31.445Z,4.80
2019-02-07T20:41:06.259Z,4.80
2019-02-07T20:43:40.759Z,4.35
2019-02-07T20:46:15.698Z,4.97
2019-02-07T20:48:50.424Z,4.50
2019-02-07T20:51:25.669Z,5.03
2019-02-07T20:54:01.481Z,4.30
2019-02-07T20:56:37.149Z,4.78
2019-02-07T20:59:11.787Z,4.13
2019-02-07T21:01:47.951Z,4.30
2019-02-07T21:04:22.711Z,5.33
2019-02-07T21:06:57.137Z,3.73
2019-02-07T21:09:31.928Z,4.27
2019-02-07T21:12:07.216Z,5.53
2019-02-07T21:14:43.515Z,4.37
2019-02-07T21:17:18.728Z,4.65
2019-02-07T21:19:52.297Z,3.72
2019-02-07T21:22:26.305Z,3.37
2019-02-07T21:24:59.810Z,4.23
2019-02-07T21:27:35.281Z,5.27
2019-02-07T21:30:12.881Z,4.30
2019-02-07T21:32:46.792Z,5.10
2019-02-07T21:35:22.185Z,4.07
2019-02-07T21:37:55.866Z,4.07
2019-02-07T21:40:32.170Z,4.70
2019-02-07T21:43:06.392Z,3.37
2019-02-07T21:45:41.931Z,3.93
2019-02-07T21:48:15.670Z,3.72
2019-02-07T21:50:49.133Z,3.57
2019-02-07T21:53:22.767Z,3.30
2019-02-07T21:55:58.050Z,4.47
2019-02-07T21:58:34.315Z,4.10
2019-02-07T22:01:09.310Z,3.33
2019-02-07T22:03:43.033Z,3.20
2019-02-07T22:06:17.056Z,3.10
2019-02-07T22:08:50.708Z,3.87
2019-02-07T22:11:24.327Z,4.17
2019-02-07T22:13:57.982Z,3.97
2019-02-07T22:16:31.784Z,4.17
2019-02-07T22:19:05.481Z,3.50
2019-02-07T22:21:39.144Z,4.20
2019-02-07T22:24:12.598Z,4.37
2019-02-07T22:26:47.383Z,5.20
2019-02-07T22:29:21.262Z,4.00
2019-02-07T22:31:54.826Z,4.17
2019-02-07T22:34:28.437Z,3.30
2019-02-07T22:37:02.069Z,5.00
2019-02-07T22:39:35.461Z,4.95
2019-02-07T22:42:09.137Z,3.37
2019-02-07T22:44:42.784Z,4.20
2019-02-07T22:47:16.358Z,3.77
2019-02-07T22:49:50.037Z,3.70
2019-02-07T22:52:23.891Z,4.27
2019-02-07T22:54:57.453Z,5.03
2019-02-07T22:57:31.566Z,4.63
2019-02-07T23:00:25.745Z,6.28
2019-02-07T23:03:01.058Z,6.23
2019-02-07T23:05:36.116Z,5.23
2019-02-07T23:08:11.503Z,4.73
2019-02-07T23:10:46.258Z,6.57
2019-02-07T23:13:19.980Z,4.97
2019-02-07T23:15:53.725Z,5.77
2019-02-07T23:18:27.208Z,5.20
2019-02-07T23:21:04.624Z,6.20
2019-02-07T23:23:38.207Z,6.37
2019-02-07T23:26:11.672Z,6.97
2019-02-07T23:28:45.209Z,6.90
2019-02-07T23:31:20.774Z,7.23
2019-02-07T23:33:54.396Z,7.93
2019-02-07T23:36:28.161Z,6.83
2019-02-07T23:39:01.790Z,8.40
2019-02-07T23:41:38.980Z,7.33
2019-02-07T23:44:13.395Z,7.58
2019-02-07T23:46:46.960Z,7.40
2019-02-07T23:49:20.580Z,6.23
2019-02-07T23:51:54.241Z,6.50
2019-02-07T23:54:27.773Z,6.75
2019-02-07T23:57:01.295Z,7.80
2019-02-07T23:59:34.839Z,8.47
